createdAt,value
2023-03-15T00:01:18.694Z,0.30
2023-03-15T00:03:47.047Z,0.30
2023-03-15T00:06:15.353Z,0.43
2023-03-15T00:08:47.614Z,0.40
2023-03-15T00:11:16.540Z,0.40
2023-03-15T00:13:44.126Z,0.50
2023-03-15T00:16:12.509Z,0.47
2023-03-15T00:18:39.895Z,0.47
2023-03-15T00:21:07.226Z,0.50
2023-03-15T00:23:34.542Z,0.60
2023-03-15T00:26:01.849Z,0.40
2023-03-15T00:28:29.117Z,0.55
2023-03-15T00:31:09.565Z,0.60
2023-03-15T00:33:36.832Z,0.52
2023-03-15T00:36:06.412Z,0.85
2023-03-15T00:38:35.031Z,1.33
2023-03-15T00:41:14.641Z,0.40
2023-03-15T00:43:42.835Z,0.50
2023-03-15T00:46:11.225Z,0.80
2023-03-15T00:48:39.074Z,0.52
2023-03-15T00:51:13.966Z,0.70
2023-03-15T00:53:43.683Z,0.70
2023-03-15T00:56:14.027Z,0.70
2023-03-15T00:58:41.843Z,0.50
2023-03-15T01:01:18.268Z,0.40
2023-03-15T01:03:46.145Z,0.65
2023-03-15T01:06:16.585Z,0.60
2023-03-15T01:08:44.790Z,0.93
2023-03-15T01:11:18.244Z,0.52
2023-03-15T01:13:45.704Z,0.55
2023-03-15T01:16:14.840Z,0.50
2023-03-15T01:18:44.305Z,0.30
2023-03-15T01:21:13.513Z,0.50
2023-03-15T01:23:41.411Z,0.55
2023-03-15T01:26:12.149Z,0.50
2023-03-15T01:28:39.725Z,0.63
2023-03-15T01:31:07.135Z,0.85
2023-03-15T01:33:34.472Z,0.60
2023-03-15T01:36:06.919Z,0.80
2023-03-15T01:38:35.382Z,0.70
2023-03-15T01:41:03.070Z,0.60
2023-03-15T01:43:32.849Z,1.35
2023-03-15T01:46:03.551Z,0.73
2023-03-15T01:48:44.816Z,0.90
2023-03-15T01:51:30.564Z,0.70
2023-03-15T01:54:19.469Z,0.80
2023-03-15T01:57:10.586Z,0.80
2023-03-15T01:59:49.530Z,0.60
2023-03-15T02:02:16.989Z,0.82
2023-03-15T02:04:52.971Z,1.02
2023-03-15T02:07:24.973Z,1.23
2023-03-15T02:10:01.994Z,0.90
2023-03-15T02:12:33.890Z,0.70
2023-03-15T02:15:04.814Z,0.77
2023-03-15T02:17:45.446Z,1.13
2023-03-15T02:20:31.304Z,0.60
2023-03-15T02:23:05.592Z,0.60
2023-03-15T02:28:05.783Z,0.55
2023-03-15T02:30:33.798Z,0.40
2023-03-15T02:33:07.389Z,1.88
2023-03-15T02:35:34.897Z,0.70
2023-03-15T02:38:02.769Z,0.40
2023-03-15T02:40:31.481Z,0.57
2023-03-15T02:43:03.253Z,0.40
2023-03-15T02:45:32.477Z,0.40
2023-03-15T02:48:02.677Z,0.45
2023-03-15T02:50:29.993Z,0.50
2023-03-15T02:52:57.443Z,0.50
2023-03-15T02:55:24.712Z,0.57
2023-03-15T02:57:51.983Z,0.50
2023-03-15T03:00:20.182Z,0.40
2023-03-15T03:02:49.239Z,0.45
2023-03-15T03:05:17.531Z,0.55
2023-03-15T03:07:45.271Z,0.50
2023-03-15T03:10:16.393Z,0.50
2023-03-15T03:12:53.762Z,0.57
2023-03-15T03:15:28.033Z,0.60
2023-03-15T03:17:55.341Z,0.50
2023-03-15T03:20:23.989Z,0.50
2023-03-15T03:22:51.245Z,0.50
2023-03-15T03:25:18.900Z,0.60
2023-03-15T03:27:48.330Z,0.40
2023-03-15T03:30:16.441Z,0.63
2023-03-15T03:32:49.394Z,0.50
2023-03-15T03:35:16.739Z,0.60
2023-03-15T03:37:44.262Z,0.60
2023-03-15T03:40:19.092Z,0.40
2023-03-15T03:42:46.378Z,0.47
2023-03-15T03:45:13.766Z,0.60
2023-03-15T03:47:44.080Z,0.40
2023-03-15T03:50:12.196Z,0.40
2023-03-15T03:52:40.041Z,0.50
2023-03-15T03:55:14.923Z,0.60
2023-03-15T03:57:43.902Z,0.70
2023-03-15T04:00:18.030Z,0.80
2023-03-15T04:02:46.167Z,0.60
2023-03-15T04:05:15.787Z,0.80
2023-03-15T04:07:43.609Z,0.60
2023-03-15T04:10:15.399Z,0.50
2023-03-15T04:12:46.385Z,0.80
2023-03-15T04:15:15.303Z,0.60
2023-03-15T04:17:42.689Z,0.63
2023-03-15T04:20:12.995Z,0.70
2023-03-15T04:22:49.744Z,0.50
2023-03-15T04:25:26.737Z,0.70
2023-03-15T04:28:04.554Z,0.60
2023-03-15T04:30:52.234Z,0.70
2023-03-15T04:33:42.042Z,0.50
2023-03-15T04:36:33.089Z,1.15
2023-03-15T04:39:07.544Z,0.90
2023-03-15T04:41:55.155Z,0.77
2023-03-15T04:44:34.316Z,0.65
2023-03-15T04:47:20.869Z,0.90
2023-03-15T04:49:51.079Z,0.90
2023-03-15T04:52:36.694Z,0.77
2023-03-15T04:55:19.713Z,0.70
2023-03-15T04:58:09.105Z,0.57
2023-03-15T05:00:54.660Z,0.60
2023-03-15T05:03:37.493Z,0.75
2023-03-15T05:06:12.696Z,1.02
2023-03-15T05:08:51.232Z,0.55
2023-03-15T05:11:36.933Z,0.60
2023-03-15T05:14:04.130Z,0.70
2023-03-15T05:16:33.817Z,0.65
2023-03-15T05:19:15.627Z,1.00
2023-03-15T05:22:09.302Z,0.60
2023-03-15T05:24:56.729Z,0.95
2023-03-15T05:27:42.640Z,0.70
2023-03-15T05:30:24.395Z,0.90
2023-03-15T05:33:06.187Z,2.15
2023-03-15T05:35:44.625Z,0.98
2023-03-15T05:38:31.340Z,1.15
2023-03-15T05:41:07.261Z,1.10
2023-03-15T05:43:43.552Z,0.70
2023-03-15T05:46:29.806Z,1.02
2023-03-15T05:49:12.215Z,0.80
2023-03-15T05:51:53.415Z,0.82
2023-03-15T05:54:40.937Z,0.80
2023-03-15T05:57:11.669Z,1.40
2023-03-15T05:59:57.117Z,1.15
2023-03-15T06:02:44.118Z,1.00
2023-03-15T06:05:35.073Z,1.45
2023-03-15T06:08:05.461Z,0.80
2023-03-15T06:10:35.363Z,1.30
2023-03-15T06:13:07.550Z,0.77
2023-03-15T06:15:34.996Z,0.90
2023-03-15T06:18:02.641Z,1.00
2023-03-15T06:20:32.037Z,1.00
2023-03-15T06:23:05.089Z,1.05
2023-03-15T06:25:41.173Z,1.20
2023-03-15T06:28:08.552Z,1.10
2023-03-15T06:30:37.202Z,0.95
2023-03-15T06:33:04.445Z,1.20
2023-03-15T06:35:31.912Z,1.27
2023-03-15T06:37:59.362Z,0.90
2023-03-15T06:40:27.686Z,1.10
2023-03-15T06:42:55.079Z,1.10
2023-03-15T06:45:22.807Z,1.15
2023-03-15T06:47:50.748Z,1.20
2023-03-15T06:50:18.508Z,1.20
2023-03-15T06:52:45.740Z,1.85
2023-03-15T06:55:18.312Z,1.50
2023-03-15T06:57:46.526Z,1.55
2023-03-15T07:00:14.817Z,1.85
2023-03-15T07:02:42.207Z,1.60
2023-03-15T07:05:10.040Z,1.38
2023-03-15T07:07:37.297Z,1.58
2023-03-15T07:10:05.240Z,1.67
2023-03-15T07:12:32.672Z,1.42
2023-03-15T07:14:59.941Z,1.63
2023-03-15T07:17:27.146Z,1.75
2023-03-15T07:19:56.838Z,2.03
2023-03-15T07:22:24.860Z,2.03
2023-03-15T07:24:52.406Z,1.98
2023-03-15T07:27:19.675Z,2.20
2023-03-15T07:29:46.958Z,2.38
2023-03-15T07:32:14.418Z,2.35
2023-03-15T07:34:42.078Z,2.42
2023-03-15T07:37:09.379Z,2.30
2023-03-15T07:39:36.625Z,2.70
2023-03-15T07:42:04.297Z,3.08
2023-03-15T07:44:38.909Z,2.92
2023-03-15T07:47:06.408Z,3.03
2023-03-15T07:49:34.745Z,2.00
2023-03-15T07:52:02.033Z,2.80
2023-03-15T07:54:31.845Z,2.80
2023-03-15T07:56:59.244Z,2.38
2023-03-15T07:59:26.567Z,2.67
2023-03-15T08:01:53.907Z,2.80
2023-03-15T08:04:21.358Z,3.75
2023-03-15T08:06:48.622Z,2.80
2023-03-15T08:09:15.807Z,2.95
2023-03-15T08:11:44.662Z,3.05
2023-03-15T08:14:12.896Z,3.28
2023-03-15T08:16:40.162Z,2.92
2023-03-15T08:19:07.440Z,3.25
2023-03-15T08:21:34.776Z,2.67
2023-03-15T08:24:02.283Z,2.65
2023-03-15T08:26:29.437Z,3.35
2023-03-15T08:28:56.767Z,3.13
2023-03-15T08:31:24.035Z,3.13
2023-03-15T08:33:51.301Z,2.88
2023-03-15T08:36:18.708Z,3.95
2023-03-15T08:38:45.942Z,2.78
2023-03-15T08:41:13.349Z,2.25
2023-03-15T08:43:40.688Z,2.00
2023-03-15T08:46:08.103Z,2.65
2023-03-15T08:48:35.402Z,1.23
2023-03-15T08:51:04.314Z,1.83
2023-03-15T08:53:32.423Z,1.30
2023-03-15T08:56:00.265Z,1.48
2023-03-15T08:58:27.486Z,1.05
2023-03-15T09:00:54.801Z,0.90
2023-03-15T09:03:22.685Z,1.05
2023-03-15T09:05:49.974Z,1.30
2023-03-15T09:08:21.218Z,1.48
2023-03-15T09:10:48.435Z,1.30
2023-03-15T09:13:15.643Z,1.27
2023-03-15T09:15:42.817Z,1.08
2023-03-15T09:18:10.062Z,1.20
2023-03-15T09:20:39.775Z,3.55
2023-03-15T09:23:07.810Z,1.75
2023-03-15T09:25:37.056Z,1.02
2023-03-15T09:28:05.535Z,0.80
2023-03-15T09:30:33.645Z,0.70
2023-03-15T09:33:01.120Z,0.73
2023-03-15T09:35:28.868Z,0.68
2023-03-15T09:37:56.431Z,0.60
2023-03-15T09:40:35.488Z,0.60
2023-03-15T09:43:12.000Z,0.77
2023-03-15T09:46:16.920Z,0.73
2023-03-15T09:49:01.297Z,0.70
2023-03-15T09:51:35.599Z,0.70
2023-03-15T09:56:47.344Z,2.13
2023-03-15T09:59:17.795Z,1.10
2023-03-15T10:01:47.613Z,1.17
2023-03-15T10:04:25.250Z,0.98
2023-03-15T10:06:56.676Z,0.93
2023-03-15T10:09:29.767Z,0.85
2023-03-15T10:12:12.531Z,0.80
2023-03-15T10:15:21.124Z,1.00
2023-03-15T10:18:06.379Z,0.73
2023-03-15T10:20:38.552Z,0.70
2023-03-15T10:23:31.045Z,0.50
2023-03-15T10:25:58.974Z,0.60
2023-03-15T10:28:37.615Z,0.52
2023-03-15T10:31:22.608Z,0.50
2023-03-15T10:33:57.344Z,0.65
2023-03-15T10:36:26.907Z,0.95
2023-03-15T10:38:54.779Z,0.60
2023-03-15T10:41:40.271Z,0.60
2023-03-15T10:44:12.889Z,0.60
2023-03-15T10:46:40.204Z,0.45
2023-03-15T10:49:16.207Z,0.40
2023-03-15T10:51:48.068Z,0.50
2023-03-15T10:54:22.160Z,0.57
2023-03-15T10:57:05.997Z,0.40
2023-03-15T10:59:35.749Z,0.40
2023-03-15T11:02:12.152Z,0.40
2023-03-15T11:04:44.240Z,0.70
2023-03-15T11:07:13.548Z,0.30
2023-03-15T11:10:02.580Z,0.38
2023-03-15T11:12:31.936Z,0.50
2023-03-15T11:15:16.325Z,0.50
2023-03-15T11:17:46.448Z,0.60
2023-03-15T11:20:36.782Z,0.40
2023-03-15T11:23:17.050Z,0.40
2023-03-15T11:25:44.954Z,0.40
2023-03-15T11:28:20.614Z,0.30
2023-03-15T11:30:48.749Z,0.38
2023-03-15T11:33:53.782Z,0.40
2023-03-15T11:36:30.907Z,0.30
2023-03-15T11:39:02.954Z,0.60
2023-03-15T11:41:47.384Z,0.25
2023-03-15T11:44:37.803Z,0.75
2023-03-15T11:47:14.341Z,0.70
2023-03-15T11:49:55.850Z,0.40
2023-03-15T11:52:29.356Z,0.30
2023-03-15T11:55:03.810Z,0.50
2023-03-15T11:57:46.932Z,0.82
2023-03-15T12:00:32.098Z,0.40
2023-03-15T12:03:20.931Z,0.40
2023-03-15T12:06:05.800Z,0.52
2023-03-15T12:11:33.089Z,0.52
2023-03-15T12:14:00.321Z,0.30
2023-03-15T12:16:30.620Z,0.40
2023-03-15T12:18:59.994Z,0.20
2023-03-15T12:21:34.286Z,0.20
2023-03-15T12:24:05.981Z,0.30
2023-03-15T12:26:43.910Z,0.30
2023-03-15T12:29:26.920Z,0.30
2023-03-15T12:31:59.723Z,0.30
2023-03-15T12:34:57.199Z,0.30
2023-03-15T12:37:37.997Z,0.40
2023-03-15T12:40:20.781Z,0.40
2023-03-15T12:42:48.295Z,0.30
2023-03-15T12:45:18.559Z,0.20
2023-03-15T12:47:51.578Z,0.40
2023-03-15T12:50:48.001Z,0.30
2023-03-15T12:53:29.165Z,0.30
2023-03-15T12:56:11.584Z,0.32
2023-03-15T12:58:41.310Z,0.70
2023-03-15T13:01:16.250Z,0.30
2023-03-15T13:03:44.618Z,0.28
2023-03-15T13:06:30.608Z,0.40
2023-03-15T13:09:19.263Z,0.40
2023-03-15T13:12:08.464Z,0.30
2023-03-15T13:15:02.625Z,0.20
2023-03-15T13:17:50.447Z,0.77
2023-03-15T13:20:46.566Z,0.30
2023-03-15T13:23:28.857Z,0.30
2023-03-15T13:26:21.327Z,0.32
2023-03-15T13:29:02.524Z,0.60
2023-03-15T13:31:31.634Z,0.40
2023-03-15T13:34:20.785Z,1.05
2023-03-15T13:36:56.628Z,0.25
2023-03-15T13:39:27.323Z,0.30
2023-03-15T13:42:03.708Z,0.30
2023-03-15T13:44:32.196Z,0.25
2023-03-15T13:47:00.204Z,0.22
2023-03-15T13:49:33.401Z,0.40
2023-03-15T13:52:06.796Z,0.75
2023-03-15T13:54:34.472Z,0.65
2023-03-15T13:57:19.598Z,0.30
2023-03-15T14:00:10.967Z,0.30
2023-03-15T14:02:47.093Z,0.20
2023-03-15T14:05:27.278Z,0.20
2023-03-15T14:07:57.534Z,0.45
2023-03-15T14:10:35.259Z,0.20
2023-03-15T14:13:25.261Z,0.30
2023-03-15T14:16:00.115Z,0.22
2023-03-15T14:18:32.564Z,0.77
2023-03-15T14:21:16.576Z,0.40
2023-03-15T14:23:46.603Z,0.30
2023-03-15T14:26:22.123Z,0.50
2023-03-15T14:29:02.237Z,0.30
2023-03-15T14:31:35.045Z,0.35
2023-03-15T14:34:33.667Z,0.30
2023-03-15T14:37:05.186Z,0.28
2023-03-15T14:39:39.968Z,0.30
2023-03-15T14:42:11.652Z,0.32
2023-03-15T14:44:39.074Z,0.30
2023-03-15T14:47:16.460Z,0.57
2023-03-15T14:49:43.778Z,0.30
2023-03-15T14:52:14.847Z,0.30
2023-03-15T14:54:48.520Z,0.35
2023-03-15T14:57:15.787Z,0.27
2023-03-15T14:59:42.992Z,0.47
2023-03-15T15:02:17.265Z,0.28
2023-03-15T15:04:48.154Z,0.43
2023-03-15T15:07:17.370Z,0.30
2023-03-15T15:09:50.821Z,0.40
2023-03-15T15:12:19.168Z,0.20
2023-03-15T15:14:46.437Z,0.30
2023-03-15T15:17:13.712Z,0.30
2023-03-15T15:19:41.253Z,0.35
2023-03-15T15:22:11.120Z,0.20
2023-03-15T15:24:38.452Z,0.13
2023-03-15T15:27:05.781Z,0.68
2023-03-15T15:29:33.132Z,0.20
2023-03-15T15:32:00.770Z,0.20
2023-03-15T15:34:28.005Z,0.22
2023-03-15T15:36:55.710Z,0.22
2023-03-15T15:39:29.976Z,0.13
2023-03-15T15:44:27.634Z,0.20
2023-03-15T15:46:54.990Z,0.20
2023-03-15T15:49:22.289Z,0.40
2023-03-15T15:51:50.201Z,0.57
2023-03-15T15:54:27.632Z,0.60
2023-03-15T15:56:57.858Z,0.50
2023-03-15T15:59:25.903Z,0.65
2023-03-15T16:02:02.842Z,0.50
2023-03-15T16:04:30.508Z,0.60
2023-03-15T16:07:01.896Z,0.70
2023-03-15T16:09:32.271Z,0.40
2023-03-15T16:11:59.779Z,0.80
2023-03-15T16:14:27.173Z,0.68
2023-03-15T16:16:54.527Z,0.60
2023-03-15T16:19:22.009Z,0.50
2023-03-15T16:21:51.181Z,0.40
2023-03-15T16:24:23.657Z,0.30
2023-03-15T16:26:51.185Z,0.40
2023-03-15T16:29:21.627Z,0.35
2023-03-15T16:31:50.338Z,0.47
2023-03-15T16:34:19.229Z,1.02
2023-03-15T16:36:49.735Z,0.40
2023-03-15T16:39:17.993Z,0.88
2023-03-15T16:41:45.257Z,0.40
2023-03-15T16:44:14.227Z,0.32
2023-03-15T16:46:41.549Z,0.40
2023-03-15T16:49:08.930Z,0.40
2023-03-15T16:51:39.365Z,0.55
2023-03-15T16:54:17.955Z,0.40
2023-03-15T16:56:49.400Z,0.88
2023-03-15T16:59:18.230Z,0.32
2023-03-15T17:01:46.341Z,0.40
2023-03-15T17:04:14.937Z,0.80
2023-03-15T17:06:45.440Z,0.35
2023-03-15T17:09:20.035Z,0.30
2023-03-15T17:14:18.688Z,0.57
2023-03-15T17:16:46.242Z,0.57
2023-03-15T17:19:14.870Z,0.60
2023-03-15T17:21:42.995Z,0.60
2023-03-15T17:24:11.475Z,0.85
2023-03-15T17:26:40.300Z,0.50
2023-03-15T17:29:07.897Z,0.40
2023-03-15T17:31:36.398Z,0.50
2023-03-15T17:34:03.939Z,0.43
2023-03-15T17:36:37.736Z,0.95
2023-03-15T17:39:06.861Z,0.40
2023-03-15T17:41:37.222Z,0.50
2023-03-15T17:44:04.899Z,0.50
2023-03-15T17:46:33.290Z,0.70
2023-03-15T17:49:01.776Z,0.50
2023-03-15T17:51:37.448Z,0.60
2023-03-15T17:54:16.978Z,0.60
2023-03-15T17:56:44.482Z,1.30
2023-03-15T17:59:12.961Z,0.50
2023-03-15T18:01:43.660Z,0.45
2023-03-15T18:04:13.610Z,0.65
2023-03-15T18:06:41.172Z,1.02
2023-03-15T18:09:12.981Z,1.08
2023-03-15T18:11:42.682Z,0.52
2023-03-15T18:14:14.880Z,0.57
2023-03-15T18:16:43.309Z,0.60
2023-03-15T18:19:10.716Z,0.88
2023-03-15T18:21:38.147Z,2.17
2023-03-15T18:24:05.681Z,0.40
2023-03-15T18:26:32.992Z,0.50
2023-03-15T18:29:01.080Z,0.60
2023-03-15T18:31:28.953Z,0.55
2023-03-15T18:33:56.633Z,0.60
2023-03-15T18:36:23.864Z,0.70
2023-03-15T18:38:51.358Z,0.60
2023-03-15T18:41:21.527Z,0.60
2023-03-15T18:43:50.265Z,0.50
2023-03-15T18:46:19.578Z,0.50
2023-03-15T18:48:47.902Z,0.50
2023-03-15T18:51:17.348Z,0.60
2023-03-15T18:53:45.494Z,0.47
2023-03-15T18:56:28.195Z,0.60
2023-03-15T18:58:55.537Z,0.60
2023-03-15T19:01:24.648Z,0.70
2023-03-15T19:03:53.020Z,0.60
2023-03-15T19:06:21.327Z,0.50
2023-03-15T19:08:53.511Z,0.60
2023-03-15T19:11:21.840Z,0.50
2023-03-15T19:13:51.277Z,0.63
2023-03-15T19:16:22.808Z,0.50
2023-03-15T19:18:52.237Z,0.75
2023-03-15T19:21:20.352Z,0.93
2023-03-15T19:23:47.869Z,0.70
2023-03-15T19:26:15.534Z,0.60
2023-03-15T19:28:49.179Z,0.60
2023-03-15T19:31:16.776Z,0.60
2023-03-15T19:33:44.748Z,0.60
2023-03-15T19:36:12.967Z,0.80
2023-03-15T19:38:40.870Z,0.85
2023-03-15T19:41:12.026Z,0.70
2023-03-15T19:43:42.452Z,1.00
2023-03-15T19:46:10.265Z,1.00
2023-03-15T19:48:37.620Z,1.20
2023-03-15T19:51:05.136Z,0.90
2023-03-15T19:53:32.565Z,0.85
2023-03-15T19:56:04.020Z,0.70
2023-03-15T19:58:31.399Z,1.23
2023-03-15T20:00:58.745Z,0.77
2023-03-15T20:03:26.174Z,1.00
2023-03-15T20:05:53.709Z,1.05
2023-03-15T20:08:20.938Z,0.80
2023-03-15T20:10:48.977Z,1.25
2023-03-15T20:13:16.354Z,0.77
2023-03-15T20:15:43.994Z,0.70
2023-03-15T20:18:13.847Z,0.80
2023-03-15T20:20:41.204Z,0.80
2023-03-15T20:23:09.642Z,0.82
2023-03-15T20:25:38.214Z,0.80
2023-03-15T20:28:05.901Z,0.88
2023-03-15T20:30:33.713Z,1.13
2023-03-15T20:33:01.476Z,1.52
2023-03-15T20:35:28.933Z,0.77
2023-03-15T20:37:58.374Z,0.75
2023-03-15T20:40:26.187Z,0.88
2023-03-15T20:42:53.901Z,0.60
2023-03-15T20:45:22.457Z,1.75
2023-03-15T20:47:49.873Z,1.38
2023-03-15T20:50:17.499Z,0.73
2023-03-15T20:52:44.896Z,0.93
2023-03-15T20:55:15.274Z,0.85
2023-03-15T20:57:43.577Z,0.73
2023-03-15T21:00:16.894Z,0.73
2023-03-15T21:02:47.828Z,0.60
2023-03-15T21:05:17.663Z,0.60
2023-03-15T21:07:45.815Z,0.60
2023-03-15T21:10:16.577Z,0.57
2023-03-15T21:12:44.645Z,0.50
2023-03-15T21:15:19.026Z,0.70
2023-03-15T21:17:49.206Z,0.63
2023-03-15T21:20:18.309Z,0.80
2023-03-15T21:22:46.099Z,0.80
2023-03-15T21:25:13.932Z,1.20
2023-03-15T21:27:41.656Z,0.70
2023-03-15T21:30:10.374Z,0.82
2023-03-15T21:32:38.751Z,0.85
2023-03-15T21:35:07.558Z,1.65
2023-03-15T21:37:34.833Z,0.85
2023-03-15T21:40:02.697Z,0.80
2023-03-15T21:42:30.059Z,0.65
2023-03-15T21:44:57.573Z,0.75
2023-03-15T21:47:25.961Z,1.17
2023-03-15T21:49:54.191Z,0.90
2023-03-15T21:52:22.081Z,0.90
2023-03-15T21:54:49.743Z,1.10
2023-03-15T21:57:17.270Z,0.93
2023-03-15T21:59:44.533Z,1.63
2023-03-15T22:02:14.268Z,1.42
2023-03-15T22:04:42.081Z,0.80
2023-03-15T22:07:09.728Z,1.10
2023-03-15T22:09:38.147Z,0.70
2023-03-15T22:12:05.997Z,1.10
2023-03-15T22:14:33.220Z,1.10
2023-03-15T22:17:00.609Z,1.60
2023-03-15T22:19:27.815Z,1.05
2023-03-15T22:21:56.343Z,0.90
2023-03-15T22:24:23.781Z,0.90
2023-03-15T22:26:53.089Z,1.00
2023-03-15T22:29:20.729Z,0.75
2023-03-15T22:31:48.139Z,0.75
2023-03-15T22:34:15.390Z,0.80
2023-03-15T22:36:42.903Z,1.20
2023-03-15T22:39:11.607Z,1.10
2023-03-15T22:41:38.859Z,1.02
2023-03-15T22:44:06.242Z,0.90
2023-03-15T22:46:35.300Z,1.80
2023-03-15T22:49:06.822Z,1.35
2023-03-15T22:51:34.107Z,0.82
2023-03-15T22:54:01.328Z,1.02
2023-03-15T22:56:28.526Z,0.88
2023-03-15T22:58:55.768Z,0.70
2023-03-15T23:01:22.978Z,0.73
2023-03-15T23:03:50.282Z,1.00
2023-03-15T23:06:18.181Z,1.00
2023-03-15T23:08:46.061Z,1.17
2023-03-15T23:11:13.320Z,0.90
2023-03-15T23:13:40.584Z,0.73
2023-03-15T23:16:08.092Z,0.63
2023-03-15T23:18:35.440Z,1.08
2023-03-15T23:21:11.870Z,0.90
2023-03-15T23:23:39.905Z,1.00
2023-03-15T23:26:07.477Z,0.70
2023-03-15T23:28:34.978Z,0.70
2023-03-15T23:31:03.926Z,0.73
2023-03-15T23:33:34.243Z,1.67
2023-03-15T23:36:07.194Z,0.80
2023-03-15T23:38:37.209Z,1.00
2023-03-15T23:41:05.104Z,1.50
2023-03-15T23:43:33.723Z,1.05
2023-03-15T23:46:05.176Z,0.77
2023-03-15T23:48:35.693Z,0.90
2023-03-15T23:51:03.191Z,1.08
2023-03-15T23:53:31.437Z,0.70
2023-03-15T23:55:58.823Z,0.88
2023-03-15T23:58:26.134Z,0.52
